createdAt,value
2018-12-16T00:02:25.643Z,10.40
2018-12-16T00:04:55.478Z,11.43
2018-12-16T00:07:25.445Z,11.87
2018-12-16T00:09:53.332Z,11.70
2018-12-16T00:12:21.168Z,12.53
2018-12-16T00:14:49.149Z,11.60
2018-12-16T00:17:17.186Z,11.87
2018-12-16T00:19:44.940Z,9.83
2018-12-16T00:22:12.740Z,10.90
2018-12-16T00:24:40.661Z,10.47
2018-12-16T00:27:10.677Z,10.87
2018-12-16T00:29:38.682Z,11.40
2018-12-16T00:32:06.525Z,11.80
2018-12-16T00:34:34.333Z,11.00
2018-12-16T00:37:02.108Z,11.20
2018-12-16T00:39:29.901Z,11.23
2018-12-16T00:42:04.446Z,10.13
2018-12-16T00:44:32.231Z,10.60
2018-12-16T00:47:00.006Z,11.03
2018-12-16T00:49:27.817Z,11.47
2018-12-16T00:51:55.616Z,10.97
2018-12-16T00:54:23.491Z,10.27
2018-12-16T00:56:51.254Z,10.90
2018-12-16T00:59:19.017Z,12.90
2018-12-16T01:01:46.983Z,11.57
2018-12-16T01:04:14.876Z,10.13
2018-12-16T01:06:42.692Z,12.27
2018-12-16T01:09:10.553Z,12.30
2018-12-16T01:11:40.400Z,11.03
2018-12-16T01:14:08.198Z,11.23
2018-12-16T01:16:35.984Z,12.60
2018-12-16T01:19:04.028Z,10.87
2018-12-16T01:21:31.852Z,12.13
2018-12-16T01:23:59.625Z,10.60
2018-12-16T01:26:27.598Z,11.60
2018-12-16T01:28:55.450Z,11.87
2018-12-16T01:31:23.321Z,10.63
2018-12-16T01:33:51.168Z,11.47
2018-12-16T01:36:19.088Z,11.50
2018-12-16T01:38:46.958Z,11.53
2018-12-16T01:41:14.754Z,10.43
2018-12-16T01:43:42.585Z,10.93
2018-12-16T01:46:10.397Z,11.77
2018-12-16T01:48:38.206Z,10.43
2018-12-16T01:51:06.037Z,9.80
2018-12-16T01:53:33.854Z,9.47
2018-12-16T01:56:01.764Z,10.87
2018-12-16T01:58:29.563Z,10.73
2018-12-16T02:00:57.359Z,10.67
2018-12-16T02:03:25.172Z,10.00
2018-12-16T02:05:53.012Z,10.57
2018-12-16T02:08:20.791Z,12.27
2018-12-16T02:10:48.601Z,11.30
2018-12-16T02:13:19.351Z,11.07
2018-12-16T02:15:47.201Z,11.53
2018-12-16T02:18:15.053Z,12.83
2018-12-16T02:20:42.846Z,12.40
2018-12-16T02:23:10.629Z,12.73
2018-12-16T02:25:39.237Z,11.40
2018-12-16T02:28:07.005Z,11.37
2018-12-16T02:30:34.787Z,11.23
2018-12-16T02:33:02.686Z,11.27
2018-12-16T02:35:30.474Z,11.87
2018-12-16T02:37:58.285Z,10.77
2018-12-16T02:40:26.108Z,9.93
2018-12-16T02:42:53.934Z,10.23
2018-12-16T02:45:21.771Z,10.90
2018-12-16T02:47:50.577Z,9.83
2018-12-16T02:50:18.372Z,9.47
2018-12-16T02:52:46.199Z,10.47
2018-12-16T02:55:14.029Z,11.83
2018-12-16T02:57:42.143Z,9.27
2018-12-16T03:00:10.233Z,9.10
2018-12-16T03:02:37.995Z,10.43
2018-12-16T03:05:05.933Z,11.03
2018-12-16T03:07:33.691Z,11.80
2018-12-16T03:10:01.472Z,11.17
2018-12-16T03:12:29.269Z,9.70
2018-12-16T03:14:57.179Z,10.20
2018-12-16T03:17:25.037Z,9.70
2018-12-16T03:19:52.837Z,10.83
2018-12-16T03:22:20.623Z,10.47
2018-12-16T03:24:48.413Z,10.03
2018-12-16T03:27:16.230Z,10.00
2018-12-16T03:29:44.096Z,9.63
2018-12-16T03:32:11.876Z,9.37
2018-12-16T03:37:14.219Z,10.77
2018-12-16T03:39:42.057Z,10.87
2018-12-16T03:42:11.967Z,10.93
2018-12-16T03:44:39.756Z,11.23
2018-12-16T03:47:07.527Z,11.13
2018-12-16T03:49:35.256Z,10.33
2018-12-16T03:52:07.151Z,11.00
2018-12-16T03:54:35.044Z,10.93
2018-12-16T03:57:02.864Z,11.47
2018-12-16T03:59:30.708Z,10.20
2018-12-16T04:01:58.554Z,11.90
2018-12-16T04:04:26.906Z,11.70
2018-12-16T04:06:54.772Z,11.60
2018-12-16T04:09:22.673Z,10.77
2018-12-16T04:11:50.432Z,10.80
2018-12-16T04:14:19.244Z,9.90
2018-12-16T04:16:49.106Z,9.67
2018-12-16T04:19:16.946Z,11.00
2018-12-16T04:21:45.033Z,10.27
2018-12-16T04:24:12.982Z,9.73
2018-12-16T04:26:40.771Z,9.60
2018-12-16T04:29:08.566Z,10.80
2018-12-16T04:31:36.406Z,10.03
2018-12-16T04:34:04.309Z,10.30
2018-12-16T04:36:32.129Z,10.33
2018-12-16T04:38:59.880Z,10.63
2018-12-16T04:41:27.650Z,9.47
2018-12-16T04:43:55.428Z,9.60
2018-12-16T04:46:23.244Z,9.80
2018-12-16T04:48:51.116Z,8.43
2018-12-16T04:51:18.925Z,8.80
2018-12-16T04:53:46.739Z,9.23
2018-12-16T04:56:14.572Z,9.10
2018-12-16T04:58:42.383Z,7.83
2018-12-16T05:01:10.207Z,9.70
2018-12-16T05:03:38.050Z,8.97
2018-12-16T05:06:06.033Z,10.30
2018-12-16T05:08:33.842Z,11.57
2018-12-16T05:11:01.580Z,10.47
2018-12-16T05:13:29.410Z,9.93
2018-12-16T05:15:57.350Z,10.50
2018-12-16T05:18:25.115Z,10.60
2018-12-16T05:20:52.917Z,11.40
2018-12-16T05:23:20.899Z,11.03
2018-12-16T05:25:48.675Z,10.80
2018-12-16T05:28:16.511Z,9.90
2018-12-16T05:30:44.493Z,9.83
2018-12-16T05:33:12.410Z,11.40
2018-12-16T05:35:40.214Z,10.57
2018-12-16T05:38:08.240Z,11.03
2018-12-16T05:40:36.023Z,10.17
2018-12-16T05:43:03.916Z,9.83
2018-12-16T05:45:31.772Z,9.47
2018-12-16T05:47:59.623Z,9.10
2018-12-16T05:50:27.417Z,11.13
2018-12-16T05:52:55.223Z,11.23
2018-12-16T05:55:23.035Z,10.40
2018-12-16T05:57:50.901Z,10.20
2018-12-16T06:00:18.720Z,9.17
2018-12-16T06:02:46.500Z,10.20
2018-12-16T06:05:14.299Z,10.63
2018-12-16T06:07:42.067Z,10.53
2018-12-16T06:10:10.015Z,9.57
2018-12-16T06:12:37.887Z,9.37
2018-12-16T06:15:05.736Z,10.30
2018-12-16T06:17:33.573Z,9.60
2018-12-16T06:20:01.333Z,10.20
2018-12-16T06:22:29.113Z,12.93
2018-12-16T06:24:56.865Z,13.67
2018-12-16T06:27:24.645Z,13.53
2018-12-16T06:29:52.687Z,12.57
2018-12-16T06:32:20.499Z,12.87
2018-12-16T06:34:48.387Z,10.67
2018-12-16T06:37:16.217Z,12.70
2018-12-16T06:39:44.126Z,12.40
2018-12-16T06:42:12.769Z,12.07
2018-12-16T06:44:40.627Z,11.00
2018-12-16T06:47:08.423Z,9.07
2018-12-16T06:49:36.228Z,10.67
2018-12-16T06:52:04.046Z,10.30
2018-12-16T06:54:31.828Z,10.10
2018-12-16T06:57:00.642Z,10.40
2018-12-16T06:59:28.511Z,9.73
2018-12-16T07:01:56.319Z,10.80
2018-12-16T07:04:24.044Z,9.80
2018-12-16T07:06:53.194Z,10.67
2018-12-16T07:09:21.155Z,10.27
2018-12-16T07:11:55.868Z,9.00
2018-12-16T07:14:23.648Z,10.40
2018-12-16T07:16:51.464Z,10.23
2018-12-16T07:19:19.296Z,9.27
2018-12-16T07:21:47.064Z,10.23
2018-12-16T07:24:14.850Z,9.83
2018-12-16T07:26:42.719Z,10.13
2018-12-16T07:29:10.483Z,9.57
2018-12-16T07:31:38.377Z,10.47
2018-12-16T07:34:06.252Z,10.57
2018-12-16T07:36:34.197Z,9.70
2018-12-16T07:39:02.503Z,11.47
2018-12-16T07:41:30.543Z,10.03
2018-12-16T07:43:58.350Z,8.70
2018-12-16T07:46:26.150Z,9.67
2018-12-16T07:48:54.116Z,11.53
2018-12-16T07:51:21.956Z,10.90
2018-12-16T07:53:49.853Z,10.43
2018-12-16T07:56:17.688Z,9.20
2018-12-16T07:58:45.687Z,11.20
2018-12-16T08:01:13.538Z,12.13
2018-12-16T08:03:41.481Z,11.07
2018-12-16T08:06:09.326Z,11.27
2018-12-16T08:08:37.191Z,11.17
2018-12-16T08:11:05.055Z,12.33
2018-12-16T08:13:32.941Z,12.13
2018-12-16T08:16:00.729Z,12.57
2018-12-16T08:18:28.519Z,13.40
2018-12-16T08:20:56.319Z,11.27
2018-12-16T08:23:24.219Z,11.60
2018-12-16T08:25:52.058Z,11.73
2018-12-16T08:28:19.854Z,11.50
2018-12-16T08:30:47.802Z,10.97
2018-12-16T08:33:15.982Z,10.60
2018-12-16T08:35:43.831Z,12.63
2018-12-16T08:38:11.734Z,11.07
2018-12-16T08:40:39.836Z,11.30
2018-12-16T08:43:07.762Z,12.83
2018-12-16T08:45:35.682Z,12.30
2018-12-16T08:48:03.771Z,13.43
2018-12-16T08:50:31.656Z,10.50
2018-12-16T08:52:59.584Z,11.67
2018-12-16T08:55:27.369Z,12.83
2018-12-16T08:57:55.208Z,12.73
2018-12-16T09:00:23.051Z,12.27
2018-12-16T09:02:51.030Z,12.77
2018-12-16T09:05:18.919Z,13.90
2018-12-16T09:07:46.802Z,11.17
2018-12-16T09:10:14.770Z,11.57
2018-12-16T09:12:42.666Z,12.47
2018-12-16T09:15:10.740Z,11.70
2018-12-16T09:17:38.704Z,13.13
2018-12-16T09:20:06.857Z,12.87
2018-12-16T09:22:34.742Z,12.57
2018-12-16T09:25:02.891Z,13.37
2018-12-16T09:27:30.805Z,13.27
2018-12-16T09:29:58.696Z,13.07
2018-12-16T09:32:26.510Z,11.67
2018-12-16T09:34:54.596Z,12.10
2018-12-16T09:37:22.515Z,11.07
